Time;durP1;ratioP1;P1;durP2;ratioP2;P2;SDS_P1;SDS_P2;PMS_P1;PMS_P2;Temp;Humidity;BMP_temperature;BMP_pressure;BME280_temperature;BME280_humidity;BME280_pressure;Samples;Min_cycle;Max_cycle;Signal;HPM_P1;HPM_P2
2023/09/01 00:00:00;;;;;;;5.63;2.30;;;;;;;-141.50;100.00;63355.56;5046028;28;20053;-82
2023/09/01 00:02:27;;;;;;;3.83;2.30;;;;;;;-141.50;100.00;63355.56;5043619;28;20122;-84
2023/09/01 00:05:02;;;;;;;4.80;2.30;;;;;;;-141.50;100.00;63355.56;5032693;28;20053;-82
2023/09/01 00:07:29;;;;;;;3.08;2.00;;;;;;;-141.50;100.00;63355.56;5021712;28;20050;-84
2023/09/01 00:09:56;;;;;;;6.05;2.25;;;;;;;-141.50;100.00;63355.56;5047249;28;20442;-85
2023/09/01 00:12:23;;;;;;;5.57;2.33;;;;;;;-141.50;100.00;63355.56;5040552;28;20051;-84
2023/09/01 00:14:50;;;;;;;6.03;2.60;;;;;;;-141.50;100.00;63355.56;5045866;28;20111;-86
2023/09/01 00:17:17;;;;;;;9.50;2.20;;;;;;;-141.50;100.00;63355.56;5034823;28;20075;-82
2023/09/01 00:19:44;;;;;;;5.82;2.00;;;;;;;-141.50;100.00;63355.56;5021677;28;20150;-83
2023/09/01 00:22:10;;;;;;;5.55;2.17;;;;;;;-141.50;100.00;63355.56;5048163;28;20083;-83
2023/09/01 00:24:37;;;;;;;5.32;2.47;;;;;;;-141.50;100.00;63355.56;5037900;28;20046;-82
2023/09/01 00:27:04;;;;;;;8.40;2.35;;;;;;;-141.50;100.00;63355.56;5050727;28;20049;-82
2023/09/01 00:29:33;;;;;;;6.20;2.20;;;;;;;-141.50;100.00;63355.56;5029298;28;20067;-82
2023/09/01 00:32:00;;;;;;;5.88;2.25;;;;;;;-141.50;100.00;63355.56;5042168;28;20074;-82
2023/09/01 00:34:30;;;;;;;5.85;1.95;;;;;;;-141.50;100.00;63355.56;5064057;28;20060;-81
2023/09/01 00:37:00;;;;;;;6.72;2.17;;;;;;;-141.50;100.00;63355.56;5069538;28;20049;-84
2023/09/01 00:39:27;;;;;;;6.57;2.30;;;;;;;-141.50;100.00;63355.56;5061869;28;20108;-83
2023/09/01 00:41:57;;;;;;;10.90;2.80;;;;;;;-141.50;100.00;63355.56;5060688;28;20053;-81
2023/09/01 00:44:24;;;;;;;6.05;2.42;;;;;;;-141.50;100.00;63355.56;5062408;28;20033;-83
2023/09/01 00:46:54;;;;;;;5.68;2.17;;;;;;;-141.50;100.00;63355.56;5043719;28;20052;-83
2023/09/01 00:49:21;;;;;;;6.68;2.10;;;;;;;-141.50;100.00;63355.56;5062640;28;20067;-83
2023/09/01 00:51:48;;;;;;;5.07;2.15;;;;;;;-141.50;100.00;63355.56;5054041;28;20045;-84
2023/09/01 00:54:15;;;;;;;8.48;2.28;;;;;;;-141.50;100.00;63355.56;5053029;28;20049;-80
2023/09/01 00:56:43;;;;;;;7.25;2.22;;;;;;;-141.50;100.00;63355.56;5057025;28;20056;-84
2023/09/01 00:59:10;;;;;;;6.78;2.60;;;;;;;-141.50;100.00;63355.56;5030016;28;20041;-84
2023/09/01 01:01:38;;;;;;;8.57;2.50;;;;;;;-141.50;100.00;63355.56;5038189;28;20048;-84
2023/09/01 01:04:07;;;;;;;7.32;2.28;;;;;;;-141.50;100.00;63355.56;5036635;28;20095;-84
2023/09/01 01:06:47;;;;;;;10.45;2.47;;;;;;;-141.50;100.00;63355.56;5014303;28;20053;-82
2023/09/01 01:09:23;;;;;;;7.30;3.05;;;;;;;-141.50;100.00;63355.56;5049383;28;20056;-85
2023/09/01 01:12:03;;;;;;;8.82;2.55;;;;;;;-141.50;100.00;63355.56;5051376;28;20045;-84
2023/09/01 01:14:37;;;;;;;6.80;2.38;;;;;;;-141.50;100.00;63355.56;5030880;28;21272;-83
2023/09/01 01:17:05;;;;;;;8.15;2.53;;;;;;;-141.50;100.00;63355.56;5035011;28;20391;-84
2023/09/01 01:19:50;;;;;;;10.90;2.67;;;;;;;-141.50;100.00;63355.56;5046946;28;20453;-84
2023/09/01 01:22:39;;;;;;;8.93;2.40;;;;;;;-141.50;100.00;63355.56;5046822;28;20264;-84
2023/09/01 01:25:11;;;;;;;7.38;2.65;;;;;;;-141.50;100.00;63355.56;5049424;28;20107;-84
2023/09/01 01:27:41;;;;;;;5.60;2.47;;;;;;;-141.50;100.00;63355.56;5022431;28;20041;-84
2023/09/01 01:30:14;;;;;;;9.32;2.75;;;;;;;-141.50;100.00;63355.56;5058183;28;20051;-83
2023/09/01 01:32:44;;;;;;;7.38;2.50;;;;;;;-141.50;100.00;63355.56;5053715;28;20045;-85
2023/09/01 01:35:18;;;;;;;8.43;2.45;;;;;;;-141.50;100.00;63355.56;5048897;28;20052;-86
2023/09/01 01:38:07;;;;;;;5.35;2.63;;;;;;;-141.50;100.00;63355.56;5033666;28;20129;-84
2023/09/01 01:40:37;;;;;;;8.52;2.70;;;;;;;-141.50;100.00;63355.56;5046721;28;20057;-86
2023/09/01 01:43:07;;;;;;;7.03;2.90;;;;;;;-141.50;100.00;63355.56;5033167;28;20127;-85
2023/09/01 01:45:35;;;;;;;7.85;2.75;;;;;;;-141.50;100.00;63355.56;5045881;28;20525;-86
2023/09/01 01:48:02;;;;;;;6.55;2.72;;;;;;;-141.50;100.00;63355.56;5043872;28;20061;-83
2023/09/01 01:50:32;;;;;;;5.85;2.53;;;;;;;-141.50;100.00;63355.56;5047367;28;20057;-87
2023/09/01 01:53:05;;;;;;;6.50;2.80;;;;;;;-141.50;100.00;63355.56;5057554;28;20056;-81
2023/09/01 01:55:33;;;;;;;8.02;2.47;;;;;;;-141.50;100.00;63355.56;5036036;28;20067;-82
2023/09/01 01:58:00;;;;;;;10.95;2.70;;;;;;;-141.50;100.00;63355.56;5044617;28;20128;-81
2023/09/01 02:00:28;;;;;;;7.10;2.65;;;;;;;-141.50;100.00;63355.56;5055289;28;20064;-83
2023/09/01 02:02:54;;;;;;;10.35;2.80;;;;;;;-141.50;100.00;63355.56;5050199;28;20041;-86
2023/09/01 02:05:21;;;;;;;6.40;3.15;;;;;;;-141.50;100.00;63355.56;5033152;28;20108;-84
2023/09/01 02:07:48;;;;;;;9.20;2.80;;;;;;;-141.50;100.00;63355.56;5071979;28;20447;-82
2023/09/01 02:10:18;;;;;;;9.07;2.50;;;;;;;-141.50;100.00;63355.56;5052895;28;20059;-84
2023/09/01 02:12:45;;;;;;;11.45;2.83;;;;;;;-141.50;100.00;63355.56;5014598;28;20287;-85
2023/09/01 02:15:14;;;;;;;13.02;2.85;;;;;;;-141.50;100.00;63355.56;5054618;28;20127;-83
2023/09/01 02:17:41;;;;;;;7.13;2.65;;;;;;;-141.50;100.00;63355.56;5030783;28;20049;-83
2023/09/01 02:20:16;;;;;;;9.02;2.80;;;;;;;-141.50;100.00;63355.56;5048106;28;20129;-83
2023/09/01 02:22:45;;;;;;;8.43;2.92;;;;;;;-141.50;100.00;63355.56;5049546;28;20048;-82
2023/09/01 02:25:15;;;;;;;8.98;3.05;;;;;;;-141.50;100.00;63355.56;5033052;28;20045;-82
2023/09/01 02:27:42;;;;;;;6.93;2.70;;;;;;;-141.50;100.00;63355.56;5043809;28;20056;-82
2023/09/01 02:30:12;;;;;;;10.18;3.00;;;;;;;-141.50;100.00;63355.56;5029993;28;20053;-83
2023/09/01 02:32:40;;;;;;;11.93;2.95;;;;;;;-141.50;100.00;63355.56;5029926;28;20053;-83
2023/09/01 02:35:08;;;;;;;7.85;2.80;;;;;;;-141.50;100.00;63355.56;5025424;28;20053;-82
2023/09/01 02:37:38;;;;;;;7.80;2.70;;;;;;;-141.50;100.00;63355.56;5046855;28;20045;-85
2023/09/01 02:40:12;;;;;;;10.38;2.83;;;;;;;-141.50;100.00;63355.56;5045603;28;20049;-83
2023/09/01 02:42:40;;;;;;;9.10;2.70;;;;;;;-141.50;100.00;63355.56;5040013;28;20317;-84
2023/09/01 02:45:12;;;;;;;9.82;2.80;;;;;;;-141.50;100.00;63355.56;4990506;28;20049;-84
2023/09/01 02:47:40;;;;;;;12.40;3.03;;;;;;;-141.50;100.00;63355.56;5013511;28;20063;-82
2023/09/01 02:50:07;;;;;;;7.75;3.03;;;;;;;-141.50;100.00;63355.56;5024743;28;20034;-84
2023/09/01 02:52:34;;;;;;;6.50;2.70;;;;;;;-141.50;100.00;63355.56;5035413;28;20081;-81
2023/09/01 02:55:01;;;;;;;13.90;2.97;;;;;;;-141.50;100.00;63355.56;5037812;28;20052;-83
2023/09/01 02:57:28;;;;;;;7.25;2.63;;;;;;;-141.50;100.00;63355.56;5026651;28;20646;-82
2023/09/01 02:59:55;;;;;;;11.60;2.67;;;;;;;-141.50;100.00;63355.56;5019168;28;20065;-83
2023/09/01 03:02:22;;;;;;;5.85;2.25;;;;;;;-141.50;100.00;63355.56;5029900;28;20101;-83
2023/09/01 03:04:49;;;;;;;6.07;2.20;;;;;;;-141.50;100.00;63355.56;4998320;28;20048;-82
2023/09/01 03:07:17;;;;;;;9.05;2.67;;;;;;;-141.50;100.00;63355.56;5052714;28;20457;-82
2023/09/01 03:09:44;;;;;;;7.72;2.40;;;;;;;-141.50;100.00;63355.56;5051677;28;20045;-84
2023/09/01 03:12:11;;;;;;;8.90;2.30;;;;;;;-141.50;100.00;63355.56;5052776;28;20070;-84
2023/09/01 03:14:38;;;;;;;8.82;2.30;;;;;;;-141.50;100.00;63355.56;5042139;28;20045;-85
2023/09/01 03:17:05;;;;;;;8.07;2.50;;;;;;;-141.50;100.00;63355.56;5014091;28;20546;-82
2023/09/01 03:19:32;;;;;;;9.32;2.53;;;;;;;-141.50;100.00;63355.56;5061978;28;20037;-83
2023/09/01 03:21:59;;;;;;;8.35;2.40;;;;;;;-141.50;100.00;63355.56;5046117;28;20230;-81
2023/09/01 03:24:27;;;;;;;6.47;2.05;;;;;;;-141.50;100.00;63355.56;5028851;28;20128;-84
2023/09/01 03:26:54;;;;;;;6.85;2.15;;;;;;;-141.50;100.00;63355.56;5048533;28;20096;-81
2023/09/01 03:29:21;;;;;;;6.50;2.50;;;;;;;-141.50;100.00;63355.56;5048173;28;20033;-82
2023/09/01 03:31:49;;;;;;;7.03;2.53;;;;;;;-141.50;100.00;63355.56;5017470;28;20101;-84
2023/09/01 03:34:17;;;;;;;7.85;2.15;;;;;;;-141.50;100.00;63355.56;5042957;28;20670;-84
2023/09/01 03:36:44;;;;;;;5.07;1.83;;;;;;;-141.50;100.00;63355.56;5043154;28;20053;-82
2023/09/01 03:39:11;;;;;;;7.07;2.60;;;;;;;-141.50;100.00;63355.56;5033342;28;20048;-81
2023/09/01 03:41:38;;;;;;;8.10;2.35;;;;;;;-141.50;100.00;63355.56;5045837;28;21267;-83
2023/09/01 03:44:05;;;;;;;4.38;1.90;;;;;;;-141.50;100.00;63355.56;5028481;28;20053;-83
2023/09/01 03:46:33;;;;;;;4.35;2.20;;;;;;;-141.50;100.00;63355.56;5015812;28;20045;-84
2023/09/01 03:49:00;;;;;;;5.25;2.05;;;;;;;-141.50;100.00;63355.56;5050202;28;20135;-83
2023/09/01 03:51:27;;;;;;;9.27;2.47;;;;;;;-141.50;100.00;63355.56;5045218;28;20072;-86
2023/09/01 03:53:54;;;;;;;4.93;2.42;;;;;;;-141.50;100.00;63355.56;5049218;28;20048;-82
2023/09/01 03:56:22;;;;;;;4.50;2.10;;;;;;;-141.50;100.00;63355.56;5049882;28;20044;-83
2023/09/01 03:58:50;;;;;;;9.32;2.53;;;;;;;-141.50;100.00;63355.56;5034508;28;20049;-82
2023/09/01 04:01:17;;;;;;;6.90;2.17;;;;;;;-141.50;100.00;63355.56;5022381;28;20893;-82
2023/09/01 04:03:48;;;;;;;5.13;2.30;;;;;;;-141.50;100.00;63355.56;5024171;28;21332;-83
2023/09/01 04:06:15;;;;;;;6.70;1.95;;;;;;;-141.50;100.00;63355.56;5043079;28;20042;-85
2023/09/01 04:08:42;;;;;;;5.53;2.15;;;;;;;-141.50;100.00;63355.56;5031564;28;20056;-78
2023/09/01 04:11:09;;;;;;;6.47;3.03;;;;;;;-141.50;100.00;63355.56;5024504;28;20086;-79
2023/09/01 04:13:37;;;;;;;8.82;2.40;;;;;;;-141.50;100.00;63355.56;5032706;28;20065;-79
2023/09/01 04:16:04;;;;;;;4.18;2.05;;;;;;;-141.50;100.00;63355.56;5033256;28;20077;-79
2023/09/01 04:18:32;;;;;;;5.93;2.40;;;;;;;-141.50;100.00;63355.56;5031580;28;20064;-80
2023/09/01 04:20:59;;;;;;;5.38;2.47;;;;;;;-141.50;100.00;63355.56;5027920;28;20060;-80
2023/09/01 04:23:27;;;;;;;7.55;2.40;;;;;;;-141.50;100.00;63355.56;5025056;28;20566;-80
2023/09/01 04:25:54;;;;;;;3.60;1.77;;;;;;;-141.50;100.00;63355.56;5022885;28;20034;-78
2023/09/01 04:28:24;;;;;;;6.97;2.55;;;;;;;-141.50;100.00;63355.56;5031553;28;20060;-80
2023/09/01 04:30:51;;;;;;;6.80;2.22;;;;;;;-141.50;100.00;63355.56;5035229;28;20444;-79
2023/09/01 04:33:18;;;;;;;3.33;1.92;;;;;;;-141.50;100.00;63355.56;5029751;28;20656;-79
2023/09/01 04:35:56;;;;;;;5.63;2.22;;;;;;;-141.50;100.00;63355.56;5029624;28;20134;-81
2023/09/01 04:38:23;;;;;;;4.60;2.08;;;;;;;-141.50;100.00;63355.56;5037216;28;20566;-80
2023/09/01 04:40:55;;;;;;;8.10;2.28;;;;;;;-141.50;100.00;63355.56;5007553;28;20041;-82
2023/09/01 04:43:22;;;;;;;4.75;2.20;;;;;;;-141.50;100.00;63355.56;5025144;28;20052;-81
2023/09/01 04:45:49;;;;;;;5.50;2.63;;;;;;;-141.50;100.00;63355.56;5002504;28;20060;-83
2023/09/01 04:48:16;;;;;;;6.68;1.95;;;;;;;-141.50;100.00;63355.56;5047725;28;20128;-82
2023/09/01 04:50:43;;;;;;;5.45;1.98;;;;;;;-141.50;100.00;63355.56;5037323;28;20044;-82
2023/09/01 04:53:10;;;;;;;4.25;1.70;;;;;;;-141.50;100.00;63355.56;5034459;28;20109;-82
2023/09/01 04:55:48;;;;;;;3.10;1.75;;;;;;;-141.50;100.00;63355.56;5038857;28;20045;-81
2023/09/01 04:58:16;;;;;;;3.83;2.00;;;;;;;-141.50;100.00;63355.56;5048476;28;20049;-82
2023/09/01 05:00:42;;;;;;;4.60;2.22;;;;;;;-141.50;100.00;63355.56;5048111;28;20423;-80
2023/09/01 05:03:09;;;;;;;5.30;1.90;;;;;;;-141.50;100.00;63355.56;5041129;28;20049;-80
2023/09/01 05:05:37;;;;;;;5.32;2.22;;;;;;;-141.50;100.00;63355.56;5045209;28;20041;-82
2023/09/01 05:08:04;;;;;;;2.97;1.83;;;;;;;-141.50;100.00;63355.56;5047428;28;20053;-80
2023/09/01 05:10:32;;;;;;;2.30;1.60;;;;;;;-141.50;100.00;63355.56;5047963;28;20045;-83
2023/09/01 05:12:58;;;;;;;4.22;2.20;;;;;;;-141.50;100.00;63355.56;5042360;28;20329;-79
2023/09/01 05:15:25;;;;;;;7.60;2.25;;;;;;;-141.50;100.00;63355.56;5037942;28;20487;-80
2023/09/01 05:17:52;;;;;;;6.18;2.28;;;;;;;-141.50;100.00;63355.56;5020999;28;20041;-81
2023/09/01 05:20:19;;;;;;;3.75;2.00;;;;;;;-141.50;100.00;63355.56;5039759;28;20054;-81
2023/09/01 05:22:46;;;;;;;5.72;2.13;;;;;;;-141.50;100.00;63355.56;5041715;28;20080;-81
2023/09/01 05:25:13;;;;;;;6.68;2.00;;;;;;;-141.50;100.00;63355.56;5027260;28;20568;-82
2023/09/01 05:27:40;;;;;;;5.82;1.98;;;;;;;-141.50;100.00;63355.56;5030328;28;20060;-81
2023/09/01 05:30:07;;;;;;;3.85;1.70;;;;;;;-141.50;100.00;63355.56;5047795;28;20111;-81
2023/09/01 05:32:34;;;;;;;5.45;2.13;;;;;;;-141.50;100.00;63355.56;5042592;28;20057;-80
2023/09/01 05:35:03;;;;;;;5.88;2.00;;;;;;;-141.50;100.00;63355.56;5029948;28;20054;-81
2023/09/01 05:37:30;;;;;;;4.40;1.88;;;;;;;-141.50;100.00;63355.56;5031604;28;20048;-82
2023/09/01 05:39:57;;;;;;;3.58;1.70;;;;;;;-141.50;100.00;63355.56;5006112;28;20053;-83
2023/09/01 05:42:26;;;;;;;4.28;2.00;;;;;;;-141.50;100.00;63355.56;5008459;28;20064;-83
2023/09/01 05:44:53;;;;;;;7.55;1.77;;;;;;;-141.50;100.00;63355.56;5024021;28;20098;-79
2023/09/01 05:47:20;;;;;;;10.02;2.47;;;;;;;-141.50;100.00;63355.56;5039924;28;20535;-80
2023/09/01 05:49:48;;;;;;;5.72;2.17;;;;;;;-141.50;100.00;63355.56;5039222;28;20503;-80
2023/09/01 05:52:14;;;;;;;9.18;1.80;;;;;;;-141.50;100.00;63355.56;5023921;28;20153;-79
2023/09/01 05:54:41;;;;;;;4.85;2.15;;;;;;;-141.50;100.00;63355.56;5031255;28;20041;-80
2023/09/01 05:57:08;;;;;;;3.13;1.88;;;;;;;-141.50;100.00;63355.56;5045411;28;20056;-81
2023/09/01 05:59:35;;;;;;;4.70;2.15;;;;;;;-141.50;100.00;63355.56;5040900;28;20048;-82
2023/09/01 06:02:02;;;;;;;9.98;2.00;;;;;;;-141.50;100.00;63355.56;5033066;28;20061;-87
2023/09/01 06:04:29;;;;;;;4.88;1.70;;;;;;;-141.50;100.00;63355.56;5029681;28;20040;-89
2023/09/01 06:06:56;;;;;;;4.47;1.90;;;;;;;-141.50;100.00;63355.56;5025117;28;20051;-89
2023/09/01 06:09:23;;;;;;;5.00;1.85;;;;;;;-141.50;100.00;63355.56;5019518;28;20079;-90
2023/09/01 06:11:51;;;;;;;9.70;2.03;;;;;;;-141.50;100.00;63355.56;5036838;28;20094;-89
2023/09/01 06:14:18;;;;;;;7.07;1.98;;;;;;;-141.50;100.00;63355.56;5007616;28;20069;-89
2023/09/01 06:16:52;;;;;;;4.03;1.75;;;;;;;-141.50;100.00;63355.56;4981832;28;20046;-89
2023/09/01 06:19:20;;;;;;;5.67;1.97;;;;;;;-141.50;100.00;63355.56;5036216;28;20048;-90
2023/09/01 06:21:50;;;;;;;5.88;1.98;;;;;;;-141.50;100.00;63355.56;5024970;28;20144;-89
2023/09/01 06:24:20;;;;;;;5.28;1.90;;;;;;;-141.50;100.00;63355.56;5016379;28;20064;-89
2023/09/01 06:26:53;;;;;;;4.38;1.63;;;;;;;-141.50;100.00;63355.56;5027509;28;20103;-90
2023/09/01 06:29:27;;;;;;;3.47;1.87;;;;;;;-141.50;100.00;63355.56;5010100;28;20044;-89
2023/09/01 06:31:54;;;;;;;5.95;1.83;;;;;;;-141.50;100.00;63355.56;5030821;28;20053;-90
2023/09/01 06:34:21;;;;;;;4.25;1.70;;;;;;;-141.50;100.00;63355.56;5023469;28;20517;-89
2023/09/01 06:36:57;;;;;;;5.57;1.70;;;;;;;-141.50;100.00;63355.56;5028575;28;20048;-89
2023/09/01 06:39:27;;;;;;;4.80;1.83;;;;;;;-141.50;100.00;63355.56;5009106;28;20049;-92
2023/09/01 06:42:01;;;;;;;4.43;1.80;;;;;;;-141.50;100.00;63355.56;5047820;28;20052;-89
2023/09/01 06:44:40;;;;;;;4.35;1.70;;;;;;;-141.50;100.00;63355.56;5007464;28;20053;-91
2023/09/01 06:47:14;;;;;;;5.20;1.77;;;;;;;-141.50;100.00;63355.56;5018129;28;20045;-89
2023/09/01 06:49:46;;;;;;;3.65;1.52;;;;;;;-141.50;100.00;63355.56;5005589;28;20045;-90
2023/09/01 06:52:18;;;;;;;4.47;1.85;;;;;;;-141.50;100.00;63355.56;5018723;28;20048;-88
2023/09/01 06:54:50;;;;;;;4.47;1.30;;;;;;;-141.50;100.00;63355.56;5030737;28;20399;-88
2023/09/01 06:57:22;;;;;;;3.60;1.77;;;;;;;-141.50;100.00;63355.56;4998573;28;20034;-88
2023/09/01 06:59:49;;;;;;;4.30;1.60;;;;;;;-141.50;100.00;63355.56;5015844;28;20170;-89
2023/09/01 07:02:17;;;;;;;3.17;1.50;;;;;;;-141.50;100.00;63355.56;5010182;28;20037;-88
2023/09/01 07:04:44;;;;;;;2.25;1.30;;;;;;;-141.50;100.00;63355.56;5023576;28;20053;-90
2023/09/01 07:07:15;;;;;;;3.97;1.35;;;;;;;-141.50;100.00;63355.56;5004606;28;20065;-91
2023/09/01 07:10:06;;;;;;;4.15;1.45;;;;;;;-141.50;100.00;63355.56;5000217;28;20049;-89
2023/09/01 07:12:42;;;;;;;4.28;1.50;;;;;;;-141.50;100.00;63355.56;5005766;28;20041;-88
2023/09/01 07:15:17;;;;;;;5.25;1.33;;;;;;;-141.50;100.00;63355.56;5002017;28;20131;-90
2023/09/01 07:17:50;;;;;;;2.95;1.23;;;;;;;-141.50;100.00;63355.56;4983263;28;20056;-89
2023/09/01 07:23:21;;;;;;;3.25;1.20;;;;;;;-141.50;100.00;63355.56;5002699;28;20048;-89
2023/09/01 07:26:09;;;;;;;3.80;1.52;;;;;;;-141.50;100.00;63355.56;4955506;28;20055;-88
2023/09/01 07:28:53;;;;;;;3.30;1.45;;;;;;;-141.50;100.00;63355.56;4983837;28;20057;-88
2023/09/01 07:31:27;;;;;;;3.92;1.27;;;;;;;-141.50;100.00;63355.56;4990562;28;20124;-88
2023/09/01 07:33:54;;;;;;;4.85;1.55;;;;;;;-141.50;100.00;63355.56;5007077;28;20042;-83
2023/09/01 07:36:21;;;;;;;2.80;1.27;;;;;;;-141.50;100.00;63355.56;5045336;28;20040;-82
2023/09/01 07:38:48;;;;;;;5.45;1.23;;;;;;;-141.50;100.00;63355.56;5030465;28;20044;-78
2023/09/01 07:41:15;;;;;;;1.52;1.00;;;;;;;-141.50;100.00;63355.56;5035578;28;20120;-85
2023/09/01 07:43:42;;;;;;;2.63;1.02;;;;;;;-141.50;100.00;63355.56;5042952;28;20061;-76
2023/09/01 07:46:09;;;;;;;2.83;1.25;;;;;;;-141.50;100.00;63355.56;5052108;28;20352;-77
2023/09/01 07:48:36;;;;;;;2.90;1.00;;;;;;;-141.50;100.00;63355.56;5046736;28;20650;-79
2023/09/01 07:51:03;;;;;;;3.00;1.50;;;;;;;-141.50;100.00;63355.56;5042226;28;20064;-79
2023/09/01 07:53:30;;;;;;;4.15;0.90;;;;;;;-141.50;100.00;63355.56;5037815;28;20117;-79
2023/09/01 07:55:57;;;;;;;1.45;0.60;;;;;;;-141.50;100.00;63355.56;5039468;28;20052;-77
2023/09/01 07:58:23;;;;;;;1.20;0.63;;;;;;;-141.50;100.00;63355.56;5036794;28;20049;-78
2023/09/01 08:00:52;;;;;;;1.25;0.80;;;;;;;-141.50;100.00;63355.56;5032375;28;20049;-78
2023/09/01 08:03:19;;;;;;;1.63;0.70;;;;;;;-141.50;100.00;63355.56;5045377;28;20068;-78
2023/09/01 08:05:46;;;;;;;1.50;0.80;;;;;;;-141.50;100.00;63355.56;5042947;28;20049;-78
2023/09/01 08:08:13;;;;;;;2.00;0.52;;;;;;;-141.50;100.00;63355.56;5043847;28;20044;-79
2023/09/01 08:10:41;;;;;;;1.23;0.60;;;;;;;-141.50;100.00;63355.56;5035406;28;20041;-78
2023/09/01 08:13:08;;;;;;;3.08;0.60;;;;;;;-141.50;100.00;63355.56;5043434;28;20133;-79
2023/09/01 08:15:36;;;;;;;1.50;0.60;;;;;;;-141.50;100.00;63355.56;5039709;28;20076;-78
2023/09/01 08:18:03;;;;;;;2.15;0.70;;;;;;;-141.50;100.00;63355.56;5046382;28;20052;-79
2023/09/01 08:20:31;;;;;;;1.65;0.70;;;;;;;-141.50;100.00;63355.56;5038243;28;20475;-79
2023/09/01 08:22:57;;;;;;;0.50;0.40;;;;;;;-141.50;100.00;63355.56;5047584;28;20676;-80
2023/09/01 08:25:24;;;;;;;0.80;0.60;;;;;;;-141.50;100.00;63355.56;5024119;28;20488;-77
2023/09/01 08:27:51;;;;;;;1.33;0.70;;;;;;;-141.50;100.00;63355.56;5049724;28;20051;-79
2023/09/01 08:30:19;;;;;;;0.98;0.55;;;;;;;-141.50;100.00;63355.56;5049509;28;20049;-78
2023/09/01 08:32:45;;;;;;;1.30;0.55;;;;;;;-141.50;100.00;63355.56;5042021;28;20048;-78
2023/09/01 08:35:13;;;;;;;0.95;0.60;;;;;;;-141.50;100.00;63355.56;5028141;28;20045;-77
2023/09/01 08:37:40;;;;;;;1.30;0.57;;;;;;;-141.50;100.00;63355.56;5045368;28;20041;-78
2023/09/01 08:40:11;;;;;;;1.25;0.50;;;;;;;-141.50;100.00;63355.56;5031961;28;20072;-76
2023/09/01 08:42:48;;;;;;;1.00;0.60;;;;;;;-141.50;100.00;63355.56;5046875;28;20037;-77
2023/09/01 08:45:17;;;;;;;1.80;0.85;;;;;;;-141.50;100.00;63355.56;5046010;28;20539;-80
2023/09/01 08:47:46;;;;;;;1.50;0.60;;;;;;;-141.50;100.00;63355.56;5045708;28;20075;-79
2023/09/01 08:50:14;;;;;;;1.27;0.50;;;;;;;-141.50;100.00;63355.56;5036008;28;20102;-77
2023/09/01 08:52:44;;;;;;;1.40;0.60;;;;;;;-141.50;100.00;63355.56;5053457;28;20080;-77
2023/09/01 08:55:16;;;;;;;0.75;0.50;;;;;;;-141.50;100.00;63355.56;5054117;28;20057;-78
2023/09/01 08:57:44;;;;;;;1.20;0.50;;;;;;;-141.50;100.00;63355.56;5061722;28;20037;-77
2023/09/01 09:00:11;;;;;;;0.43;0.30;;;;;;;-141.50;100.00;63355.56;5046850;28;20041;-77
2023/09/01 09:02:41;;;;;;;0.82;0.52;;;;;;;-141.50;100.00;63355.56;5050717;28;20045;-78
2023/09/01 09:05:27;;;;;;;1.75;0.47;;;;;;;-141.50;100.00;63355.56;5041845;28;20068;-78
2023/09/01 09:07:58;;;;;;;0.90;0.50;;;;;;;-141.50;100.00;63355.56;5034779;28;20041;-79
2023/09/01 09:10:46;;;;;;;1.30;0.73;;;;;;;-141.50;100.00;63355.56;5045970;28;20483;-78
2023/09/01 09:13:26;;;;;;;1.20;0.73;;;;;;;-141.50;100.00;63355.56;5033179;28;20048;-79
2023/09/01 09:16:14;;;;;;;0.73;0.50;;;;;;;-141.50;100.00;63355.56;5044324;28;20044;-79
2023/09/01 09:18:47;;;;;;;0.98;0.50;;;;;;;-141.50;100.00;63355.56;5036471;28;20037;-78
2023/09/01 09:21:30;;;;;;;1.92;0.90;;;;;;;-141.50;100.00;63355.56;5046787;28;20107;-80
2023/09/01 09:23:58;;;;;;;1.27;0.60;;;;;;;-141.50;100.00;63355.56;5049493;28;20072;-80
2023/09/01 09:26:46;;;;;;;0.90;0.50;;;;;;;-141.50;100.00;63355.56;5046977;28;20064;-81
2023/09/01 09:29:14;;;;;;;0.60;0.40;;;;;;;-141.50;100.00;63355.56;5042686;28;20075;-81
2023/09/01 09:31:44;;;;;;;0.63;0.35;;;;;;;-141.50;100.00;63355.56;5021779;28;20041;-81
2023/09/01 09:34:27;;;;;;;0.77;0.45;;;;;;;-141.50;100.00;63355.56;5060268;28;20052;-82
2023/09/01 09:36:53;;;;;;;0.60;0.40;;;;;;;-141.50;100.00;63355.56;5042921;28;20584;-81
2023/09/01 09:39:22;;;;;;;0.70;0.43;;;;;;;-141.50;100.00;63355.56;5014357;28;20085;-82
2023/09/01 09:41:49;;;;;;;0.93;0.60;;;;;;;-141.50;100.00;63355.56;5050447;28;20117;-85
2023/09/01 09:44:26;;;;;;;0.80;0.50;;;;;;;-141.50;100.00;63355.56;5005230;28;20437;-79
2023/09/01 09:46:54;;;;;;;1.33;0.43;;;;;;;-141.50;100.00;63355.56;5043131;28;21817;-79
2023/09/01 09:49:23;;;;;;;1.13;0.45;;;;;;;-141.50;100.00;63355.56;5041814;28;20045;-80
2023/09/01 09:51:51;;;;;;;0.85;0.50;;;;;;;-141.50;100.00;63355.56;5045887;28;20045;-77
2023/09/01 09:54:23;;;;;;;1.17;0.68;;;;;;;-141.50;100.00;63355.56;5043139;28;20041;-79
2023/09/01 09:56:51;;;;;;;1.70;0.65;;;;;;;-141.50;100.00;63355.56;5046387;28;20045;-77
2023/09/01 09:59:27;;;;;;;0.88;0.50;;;;;;;-141.50;100.00;63355.56;5044841;28;20053;-80
2023/09/01 10:01:56;;;;;;;2.22;0.50;;;;;;;-141.50;100.00;63355.56;5001492;28;20051;-81
2023/09/01 10:04:26;;;;;;;0.63;0.43;;;;;;;-141.50;100.00;63355.56;5020090;28;20052;-80
2023/09/01 10:06:54;;;;;;;0.65;0.40;;;;;;;-141.50;100.00;63355.56;5018269;28;20061;-80
2023/09/01 10:09:21;;;;;;;0.43;0.30;;;;;;;-141.50;100.00;63355.56;5023186;28;20045;-79
2023/09/01 10:11:49;;;;;;;0.75;0.40;;;;;;;-141.50;100.00;63355.56;5025538;28;20060;-81
2023/09/01 10:14:17;;;;;;;0.70;0.40;;;;;;;-141.50;100.00;63355.56;5046743;28;20053;-79
2023/09/01 10:16:44;;;;;;;0.75;0.47;;;;;;;-141.50;100.00;63355.56;5032793;28;20046;-79
2023/09/01 10:19:12;;;;;;;1.33;0.40;;;;;;;-141.50;100.00;63355.56;5023940;28;20053;-79
2023/09/01 10:21:42;;;;;;;0.35;0.35;;;;;;;-141.50;100.00;63355.56;5029424;28;20048;-79
2023/09/01 10:24:13;;;;;;;1.00;0.47;;;;;;;-141.50;100.00;63355.56;5023772;28;20076;-79
2023/09/01 10:26:41;;;;;;;0.70;0.50;;;;;;;-141.50;100.00;63355.56;5022826;28;20072;-79
2023/09/01 10:29:12;;;;;;;0.38;0.38;;;;;;;-141.50;100.00;63355.56;5037505;28;20125;-80
2023/09/01 10:31:44;;;;;;;0.50;0.38;;;;;;;-141.50;100.00;63355.56;5027327;28;20053;-79
2023/09/01 10:34:15;;;;;;;0.73;0.35;;;;;;;-141.50;100.00;63355.56;5006323;28;20048;-79
2023/09/01 10:36:45;;;;;;;0.63;0.40;;;;;;;-141.50;100.00;63355.56;5045738;28;20076;-80
2023/09/01 10:39:24;;;;;;;0.82;0.50;;;;;;;-141.50;100.00;63355.56;5028538;28;20045;-82
2023/09/01 10:42:00;;;;;;;0.68;0.40;;;;;;;-141.50;100.00;63355.56;5040654;28;20053;-79
2023/09/01 10:44:39;;;;;;;0.50;0.40;;;;;;;-141.50;100.00;63355.56;5053233;28;20045;-81
2023/09/01 10:47:31;;;;;;;0.90;0.40;;;;;;;-141.50;100.00;63355.56;5042684;28;20132;-78
2023/09/01 10:50:02;;;;;;;0.70;0.40;;;;;;;-141.50;100.00;63355.56;5025818;28;21133;-84
2023/09/01 10:52:31;;;;;;;0.73;0.40;;;;;;;-141.50;100.00;63355.56;5024663;28;20053;-77
2023/09/01 10:55:06;;;;;;;0.50;0.28;;;;;;;-141.50;100.00;63355.56;5028153;28;20343;-77
2023/09/01 10:57:46;;;;;;;0.45;0.32;;;;;;;-141.50;100.00;63355.56;5032041;28;20072;-77
2023/09/01 11:00:34;;;;;;;0.50;0.32;;;;;;;-141.50;100.00;63355.56;5033420;28;20097;-79
2023/09/01 11:03:29;;;;;;;1.00;0.47;;;;;;;-141.50;100.00;63355.56;5037185;28;20057;-81
2023/09/01 11:06:05;;;;;;;1.15;0.30;;;;;;;-141.50;100.00;63355.56;5052636;28;20053;-81
2023/09/01 11:08:32;;;;;;;;;;;;;;;-141.50;100.00;63355.56;5039323;28;20192;-79
2023/09/01 11:11:09;;;;;;;0.63;0.43;;;;;;;-141.50;100.00;63355.56;5032448;28;19993;-79
2023/09/01 11:13:36;;;;;;;0.50;0.30;;;;;;;-141.50;100.00;63355.56;5041704;28;20423;-83
2023/09/01 11:16:11;;;;;;;0.60;0.40;;;;;;;-141.50;100.00;63355.56;5032843;28;20049;-76
2023/09/01 11:18:38;;;;;;;0.57;0.40;;;;;;;-141.50;100.00;63355.56;5067829;28;20053;-76
2023/09/01 11:21:08;;;;;;;0.50;0.40;;;;;;;-141.50;100.00;63355.56;5043795;28;20462;-80
2023/09/01 11:23:35;;;;;;;1.08;0.50;;;;;;;-141.50;100.00;63355.56;5025363;28;20168;-80